sensor_id;sensor_type;location;lat;lon;timestamp;temperature;humidity
9057;DHT22;4563;54.756;9.400;2022-09-02T00:02:17;18.00;53.70
9057;DHT22;4563;54.756;9.400;2022-09-02T00:04:45;18.10;53.90
9057;DHT22;4563;54.756;9.400;2022-09-02T00:07:12;18.00;53.80
9057;DHT22;4563;54.756;9.400;2022-09-02T00:09:39;18.00;53.80
9057;DHT22;4563;54.756;9.400;2022-09-02T00:12:07;18.00;53.90
9057;DHT22;4563;54.756;9.400;2022-09-02T00:14:36;18.00;53.80
9057;DHT22;4563;54.756;9.400;2022-09-02T00:17:05;18.00;53.90
9057;DHT22;4563;54.756;9.400;2022-09-02T00:19:32;18.00;53.80
9057;DHT22;4563;54.756;9.400;2022-09-02T00:22:01;17.90;53.80
9057;DHT22;4563;54.756;9.400;2022-09-02T00:24:28;17.90;53.80
9057;DHT22;4563;54.756;9.400;2022-09-02T00:26:55;17.90;53.90
9057;DHT22;4563;54.756;9.400;2022-09-02T00:29:23;17.90;53.90
9057;DHT22;4563;54.756;9.400;2022-09-02T00:31:50;17.90;54.00
9057;DHT22;4563;54.756;9.400;2022-09-02T00:34:18;17.80;53.90
9057;DHT22;4563;54.756;9.400;2022-09-02T00:36:46;17.80;54.00
9057;DHT22;4563;54.756;9.400;2022-09-02T00:39:13;17.80;54.00
9057;DHT22;4563;54.756;9.400;2022-09-02T00:41:41;17.80;54.00
9057;DHT22;4563;54.756;9.400;2022-09-02T00:44:11;17.80;54.10
9057;DHT22;4563;54.756;9.400;2022-09-02T00:46:38;17.70;54.10
9057;DHT22;4563;54.756;9.400;2022-09-02T00:49:09;17.70;54.10
9057;DHT22;4563;54.756;9.400;2022-09-02T00:51:40;17.70;54.20
9057;DHT22;4563;54.756;9.400;2022-09-02T00:54:08;17.70;54.30
9057;DHT22;4563;54.756;9.400;2022-09-02T00:56:39;17.60;54.20
9057;DHT22;4563;54.756;9.400;2022-09-02T00:59:10;17.60;54.20
9057;DHT22;4563;54.756;9.400;2022-09-02T01:01:40;17.60;54.30
9057;DHT22;4563;54.756;9.400;2022-09-02T01:04:07;17.60;54.30
9057;DHT22;4563;54.756;9.400;2022-09-02T01:06:34;17.50;54.20
9057;DHT22;4563;54.756;9.400;2022-09-02T01:09:07;17.50;54.30
9057;DHT22;4563;54.756;9.400;2022-09-02T01:11:39;17.50;54.40
9057;DHT22;4563;54.756;9.400;2022-09-02T01:14:07;17.50;54.40
9057;DHT22;4563;54.756;9.400;2022-09-02T01:16:39;17.50;54.40
9057;DHT22;4563;54.756;9.400;2022-09-02T01:19:13;17.50;54.50
9057;DHT22;4563;54.756;9.400;2022-09-02T01:21:46;17.40;54.40
9057;DHT22;4563;54.756;9.400;2022-09-02T01:24:13;17.40;54.40
9057;DHT22;4563;54.756;9.400;2022-09-02T01:26:41;17.40;54.50
9057;DHT22;4563;54.756;9.400;2022-09-02T01:29:08;17.40;55.10
9057;DHT22;4563;54.756;9.400;2022-09-02T01:31:35;17.30;54.50
9057;DHT22;4563;54.756;9.400;2022-09-02T01:34:01;17.30;54.60
9057;DHT22;4563;54.756;9.400;2022-09-02T01:36:31;17.30;54.60
9057;DHT22;4563;54.756;9.400;2022-09-02T01:38:59;17.20;54.50
9057;DHT22;4563;54.756;9.400;2022-09-02T01:41:26;17.20;54.40
9057;DHT22;4563;54.756;9.400;2022-09-02T01:43:53;17.20;54.50
9057;DHT22;4563;54.756;9.400;2022-09-02T01:46:20;17.20;54.50
9057;DHT22;4563;54.756;9.400;2022-09-02T01:48:47;17.20;54.60
9057;DHT22;4563;54.756;9.400;2022-09-02T01:51:16;17.20;54.60
9057;DHT22;4563;54.756;9.400;2022-09-02T01:53:43;17.10;54.60
9057;DHT22;4563;54.756;9.400;2022-09-02T01:56:12;17.10;54.60
9057;DHT22;4563;54.756;9.400;2022-09-02T01:58:39;17.10;54.60
9057;DHT22;4563;54.756;9.400;2022-09-02T02:01:07;17.00;54.60
9057;DHT22;4563;54.756;9.400;2022-09-02T02:03:35;17.00;54.60
9057;DHT22;4563;54.756;9.400;2022-09-02T02:06:07;17.00;54.70
9057;DHT22;4563;54.756;9.400;2022-09-02T02:08:34;17.00;54.80
9057;DHT22;4563;54.756;9.400;2022-09-02T02:11:01;17.00;54.80
9057;DHT22;4563;54.756;9.400;2022-09-02T02:13:30;16.90;55.40
9057;DHT22;4563;54.756;9.400;2022-09-02T02:15:57;16.90;54.80
9057;DHT22;4563;54.756;9.400;2022-09-02T02:18:23;16.90;54.80
9057;DHT22;4563;54.756;9.400;2022-09-02T02:20:50;16.90;54.80
9057;DHT22;4563;54.756;9.400;2022-09-02T02:23:17;16.80;54.70
9057;DHT22;4563;54.756;9.400;2022-09-02T02:25:44;16.80;54.80
9057;DHT22;4563;54.756;9.400;2022-09-02T02:28:11;16.80;54.90
9057;DHT22;4563;54.756;9.400;2022-09-02T02:30:40;16.80;54.90
9057;DHT22;4563;54.756;9.400;2022-09-02T02:33:07;16.80;55.00
9057;DHT22;4563;54.756;9.400;2022-09-02T02:35:34;16.80;55.00
9057;DHT22;4563;54.756;9.400;2022-09-02T02:38:02;16.80;55.00
9057;DHT22;4563;54.756;9.400;2022-09-02T02:40:29;16.80;55.00
9057;DHT22;4563;54.756;9.400;2022-09-02T02:42:56;16.70;55.00
9057;DHT22;4563;54.756;9.400;2022-09-02T02:45:24;16.70;55.00
9057;DHT22;4563;54.756;9.400;2022-09-02T02:47:52;16.70;55.10
9057;DHT22;4563;54.756;9.400;2022-09-02T02:50:21;16.70;55.10
9057;DHT22;4563;54.756;9.400;2022-09-02T02:52:49;16.60;55.00
9057;DHT22;4563;54.756;9.400;2022-09-02T02:55:18;16.70;55.20
9057;DHT22;4563;54.756;9.400;2022-09-02T02:57:45;16.60;55.10
9057;DHT22;4563;54.756;9.400;2022-09-02T03:00:14;16.60;55.10
9057;DHT22;4563;54.756;9.400;2022-09-02T03:02:42;16.60;55.20
9057;DHT22;4563;54.756;9.400;2022-09-02T03:05:11;16.60;55.20
9057;DHT22;4563;54.756;9.400;2022-09-02T03:07:39;16.50;55.20
9057;DHT22;4563;54.756;9.400;2022-09-02T03:10:08;16.60;55.40
9057;DHT22;4563;54.756;9.400;2022-09-02T03:12:36;16.60;55.40
9057;DHT22;4563;54.756;9.400;2022-09-02T03:15:05;16.60;55.40
9057;DHT22;4563;54.756;9.400;2022-09-02T03:17:33;16.60;55.50
9057;DHT22;4563;54.756;9.400;2022-09-02T03:20:00;16.50;55.50
9057;DHT22;4563;54.756;9.400;2022-09-02T03:22:28;16.50;55.40
9057;DHT22;4563;54.756;9.400;2022-09-02T03:24:55;16.50;55.40
9057;DHT22;4563;54.756;9.400;2022-09-02T03:27:22;16.50;55.50
9057;DHT22;4563;54.756;9.400;2022-09-02T03:29:49;16.50;55.50
9057;DHT22;4563;54.756;9.400;2022-09-02T03:32:16;16.50;55.50
9057;DHT22;4563;54.756;9.400;2022-09-02T03:34:43;16.40;56.00
9057;DHT22;4563;54.756;9.400;2022-09-02T03:37:10;16.40;55.50
9057;DHT22;4563;54.756;9.400;2022-09-02T03:39:38;16.40;55.50
9057;DHT22;4563;54.756;9.400;2022-09-02T03:42:06;16.40;55.50
9057;DHT22;4563;54.756;9.400;2022-09-02T03:44:33;16.40;55.50
9057;DHT22;4563;54.756;9.400;2022-09-02T03:47:00;16.40;55.50
9057;DHT22;4563;54.756;9.400;2022-09-02T03:49:27;16.40;55.60
9057;DHT22;4563;54.756;9.400;2022-09-02T03:51:54;16.30;55.50
9057;DHT22;4563;54.756;9.400;2022-09-02T03:54:21;16.30;55.50
9057;DHT22;4563;54.756;9.400;2022-09-02T03:56:50;16.30;55.60
9057;DHT22;4563;54.756;9.400;2022-09-02T03:59:17;16.30;55.70
9057;DHT22;4563;54.756;9.400;2022-09-02T04:01:45;16.30;55.70
9057;DHT22;4563;54.756;9.400;2022-09-02T04:04:12;16.30;55.70
9057;DHT22;4563;54.756;9.400;2022-09-02T04:06:39;16.20;55.70
9057;DHT22;4563;54.756;9.400;2022-09-02T04:09:06;16.20;55.70
9057;DHT22;4563;54.756;9.400;2022-09-02T04:11:33;16.20;55.70
9057;DHT22;4563;54.756;9.400;2022-09-02T04:14:04;16.20;55.70
9057;DHT22;4563;54.756;9.400;2022-09-02T04:16:32;16.20;55.70
9057;DHT22;4563;54.756;9.400;2022-09-02T04:19:00;16.20;55.80
9057;DHT22;4563;54.756;9.400;2022-09-02T04:21:28;16.10;55.70
9057;DHT22;4563;54.756;9.400;2022-09-02T04:23:55;16.10;55.80
9057;DHT22;4563;54.756;9.400;2022-09-02T04:26:22;16.10;55.70
9057;DHT22;4563;54.756;9.400;2022-09-02T04:28:50;16.10;55.80
9057;DHT22;4563;54.756;9.400;2022-09-02T04:31:21;16.10;55.90
9057;DHT22;4563;54.756;9.400;2022-09-02T04:33:50;16.10;55.90
9057;DHT22;4563;54.756;9.400;2022-09-02T04:36:18;16.00;55.80
9057;DHT22;4563;54.756;9.400;2022-09-02T04:38:46;16.00;55.80
9057;DHT22;4563;54.756;9.400;2022-09-02T04:41:15;16.00;55.80
9057;DHT22;4563;54.756;9.400;2022-09-02T04:43:43;16.00;55.90
9057;DHT22;4563;54.756;9.400;2022-09-02T04:46:13;16.00;55.80
9057;DHT22;4563;54.756;9.400;2022-09-02T04:48:44;16.00;56.00
9057;DHT22;4563;54.756;9.400;2022-09-02T04:51:15;15.90;56.50
9057;DHT22;4563;54.756;9.400;2022-09-02T04:53:43;15.90;55.90
9057;DHT22;4563;54.756;9.400;2022-09-02T04:56:13;15.90;56.00
9057;DHT22;4563;54.756;9.400;2022-09-02T04:58:41;15.90;56.00
9057;DHT22;4563;54.756;9.400;2022-09-02T05:01:11;15.90;56.00
9057;DHT22;4563;54.756;9.400;2022-09-02T05:03:40;15.90;56.10
9057;DHT22;4563;54.756;9.400;2022-09-02T05:06:12;15.80;56.00
9057;DHT22;4563;54.756;9.400;2022-09-02T05:08:39;15.90;56.20
9057;DHT22;4563;54.756;9.400;2022-09-02T05:11:07;15.80;56.10
9057;DHT22;4563;54.756;9.400;2022-09-02T05:13:38;15.80;56.20
9057;DHT22;4563;54.756;9.400;2022-09-02T05:16:06;15.80;56.20
9057;DHT22;4563;54.756;9.400;2022-09-02T05:18:35;15.80;56.30
9057;DHT22;4563;54.756;9.400;2022-09-02T05:21:20;15.80;56.30
9057;DHT22;4563;54.756;9.400;2022-09-02T05:23:51;15.80;56.50
9057;DHT22;4563;54.756;9.400;2022-09-02T05:26:56;15.80;56.40
9057;DHT22;4563;54.756;9.400;2022-09-02T05:29:41;15.80;56.50
9057;DHT22;4563;54.756;9.400;2022-09-02T05:32:08;15.80;56.40
9057;DHT22;4563;54.756;9.400;2022-09-02T05:34:36;15.80;56.40
9057;DHT22;4563;54.756;9.400;2022-09-02T05:46:26;15.80;56.50
9057;DHT22;4563;54.756;9.400;2022-09-02T05:49:22;15.80;56.50
9057;DHT22;4563;54.756;9.400;2022-09-02T05:52:03;15.80;56.40
9057;DHT22;4563;54.756;9.400;2022-09-02T05:54:44;15.90;56.70
9057;DHT22;4563;54.756;9.400;2022-09-02T05:57:16;15.90;56.80
9057;DHT22;4563;54.756;9.400;2022-09-02T05:59:48;15.90;56.80
9057;DHT22;4563;54.756;9.400;2022-09-02T06:05:35;16.00;57.00
9057;DHT22;4563;54.756;9.400;2022-09-02T06:08:10;16.00;57.10
9057;DHT22;4563;54.756;9.400;2022-09-02T06:10:51;16.00;57.20
9057;DHT22;4563;54.756;9.400;2022-09-02T06:13:19;16.00;57.30
9057;DHT22;4563;54.756;9.400;2022-09-02T06:15:48;16.00;57.50
9057;DHT22;4563;54.756;9.400;2022-09-02T06:18:18;16.00;57.70
9057;DHT22;4563;54.756;9.400;2022-09-02T06:26:15;16.20;58.40
9057;DHT22;4563;54.756;9.400;2022-09-02T06:28:56;16.20;58.60
9057;DHT22;4563;54.756;9.400;2022-09-02T06:31:45;16.20;58.70
9057;DHT22;4563;54.756;9.400;2022-09-02T06:34:58;16.30;58.80
9057;DHT22;4563;54.756;9.400;2022-09-02T06:37:55;16.30;57.90
9057;DHT22;4563;54.756;9.400;2022-09-02T06:41:00;16.40;58.80
9057;DHT22;4563;54.756;9.400;2022-09-02T06:47:15;16.50;58.40
9057;DHT22;4563;54.756;9.400;2022-09-02T06:50:03;16.60;58.10
9057;DHT22;4563;54.756;9.400;2022-09-02T06:52:32;16.60;58.50
9057;DHT22;4563;54.756;9.400;2022-09-02T06:55:00;16.70;58.70
9057;DHT22;4563;54.756;9.400;2022-09-02T06:57:35;16.80;58.70
9057;DHT22;4563;54.756;9.400;2022-09-02T07:00:05;16.80;58.70
9057;DHT22;4563;54.756;9.400;2022-09-02T07:02:49;16.90;58.60
9057;DHT22;4563;54.756;9.400;2022-09-02T07:05:36;16.90;58.40
9057;DHT22;4563;54.756;9.400;2022-09-02T07:08:03;17.00;58.40
9057;DHT22;4563;54.756;9.400;2022-09-02T07:10:36;17.10;58.40
9057;DHT22;4563;54.756;9.400;2022-09-02T07:13:06;17.10;58.10
9057;DHT22;4563;54.756;9.400;2022-09-02T07:15:34;17.20;58.80
9057;DHT22;4563;54.756;9.400;2022-09-02T07:18:03;17.30;58.20
9057;DHT22;4563;54.756;9.400;2022-09-02T07:20:31;17.30;58.00
9057;DHT22;4563;54.756;9.400;2022-09-02T07:22:58;17.40;58.00
9057;DHT22;4563;54.756;9.400;2022-09-02T07:25:39;17.40;57.70
9057;DHT22;4563;54.756;9.400;2022-09-02T07:28:07;17.50;57.70
9057;DHT22;4563;54.756;9.400;2022-09-02T07:30:45;17.60;57.90
9057;DHT22;4563;54.756;9.400;2022-09-02T07:33:20;17.60;57.40
9057;DHT22;4563;54.756;9.400;2022-09-02T07:35:52;17.70;57.60
9057;DHT22;4563;54.756;9.400;2022-09-02T07:38:21;17.70;57.50
9057;DHT22;4563;54.756;9.400;2022-09-02T07:40:48;17.80;57.40
9057;DHT22;4563;54.756;9.400;2022-09-02T07:43:40;17.90;57.40
9057;DHT22;4563;54.756;9.400;2022-09-02T07:46:07;18.00;56.90
9057;DHT22;4563;54.756;9.400;2022-09-02T07:49:00;18.00;57.20
9057;DHT22;4563;54.756;9.400;2022-09-02T07:51:28;18.10;57.00
9057;DHT22;4563;54.756;9.400;2022-09-02T07:53:57;18.20;57.30
9057;DHT22;4563;54.756;9.400;2022-09-02T07:56:40;18.30;57.20
9057;DHT22;4563;54.756;9.400;2022-09-02T07:59:09;18.30;57.60
9057;DHT22;4563;54.756;9.400;2022-09-02T08:01:52;18.40;56.90
9057;DHT22;4563;54.756;9.400;2022-09-02T08:04:31;18.40;56.80
9057;DHT22;4563;54.756;9.400;2022-09-02T08:07:14;18.50;56.50
9057;DHT22;4563;54.756;9.400;2022-09-02T08:09:56;18.50;56.30
9057;DHT22;4563;54.756;9.400;2022-09-02T08:12:27;18.60;56.20
9057;DHT22;4563;54.756;9.400;2022-09-02T08:15:09;18.70;56.00
9057;DHT22;4563;54.756;9.400;2022-09-02T08:17:39;18.80;55.80
9057;DHT22;4563;54.756;9.400;2022-09-02T08:20:13;18.80;55.50
9057;DHT22;4563;54.756;9.400;2022-09-02T08:22:44;18.90;55.30
9057;DHT22;4563;54.756;9.400;2022-09-02T08:25:26;19.00;55.20
9057;DHT22;4563;54.756;9.400;2022-09-02T08:28:17;19.00;55.10
9057;DHT22;4563;54.756;9.400;2022-09-02T08:31:15;19.10;54.80
9057;DHT22;4563;54.756;9.400;2022-09-02T08:33:54;19.20;54.90
9057;DHT22;4563;54.756;9.400;2022-09-02T08:36:50;19.30;55.00
9057;DHT22;4563;54.756;9.400;2022-09-02T08:39:38;19.40;54.80
9057;DHT22;4563;54.756;9.400;2022-09-02T08:42:16;19.40;54.70
9057;DHT22;4563;54.756;9.400;2022-09-02T08:45:07;19.50;54.60
9057;DHT22;4563;54.756;9.400;2022-09-02T08:48:12;19.60;54.50
9057;DHT22;4563;54.756;9.400;2022-09-02T08:50:51;19.70;54.50
9057;DHT22;4563;54.756;9.400;2022-09-02T08:53:29;19.80;54.40
9057;DHT22;4563;54.756;9.400;2022-09-02T08:55:58;19.80;54.30
9057;DHT22;4563;54.756;9.400;2022-09-02T08:58:28;19.90;54.00
9057;DHT22;4563;54.756;9.400;2022-09-02T09:01:05;20.00;53.90
9057;DHT22;4563;54.756;9.400;2022-09-02T09:03:38;20.10;54.00
9057;DHT22;4563;54.756;9.400;2022-09-02T09:06:14;20.20;53.90
9057;DHT22;4563;54.756;9.400;2022-09-02T09:08:51;20.30;54.20
9057;DHT22;4563;54.756;9.400;2022-09-02T09:11:29;20.50;54.60
9057;DHT22;4563;54.756;9.400;2022-09-02T09:14:08;20.60;54.60
9057;DHT22;4563;54.756;9.400;2022-09-02T09:16:40;20.70;55.00
9057;DHT22;4563;54.756;9.400;2022-09-02T09:19:12;20.80;54.40
9057;DHT22;4563;54.756;9.400;2022-09-02T09:21:40;21.00;54.90
9057;DHT22;4563;54.756;9.400;2022-09-02T09:24:17;21.10;54.70
9057;DHT22;4563;54.756;9.400;2022-09-02T09:26:46;21.30;56.10
9057;DHT22;4563;54.756;9.400;2022-09-02T09:29:14;21.40;55.00
9057;DHT22;4563;54.756;9.400;2022-09-02T09:31:41;21.60;55.00
9057;DHT22;4563;54.756;9.400;2022-09-02T09:34:10;21.80;55.20
9057;DHT22;4563;54.756;9.400;2022-09-02T09:36:48;21.90;54.90
9057;DHT22;4563;54.756;9.400;2022-09-02T09:39:23;22.10;56.90
9057;DHT22;4563;54.756;9.400;2022-09-02T09:41:52;22.30;56.00
9057;DHT22;4563;54.756;9.400;2022-09-02T09:44:37;22.50;55.10
9057;DHT22;4563;54.756;9.400;2022-09-02T09:47:06;22.70;60.40
9057;DHT22;4563;54.756;9.400;2022-09-02T09:49:34;22.90;55.60
9057;DHT22;4563;54.756;9.400;2022-09-02T09:52:02;23.10;55.20
9057;DHT22;4563;54.756;9.400;2022-09-02T09:54:31;23.40;55.40
9057;DHT22;4563;54.756;9.400;2022-09-02T09:57:15;23.60;55.40
9057;DHT22;4563;54.756;9.400;2022-09-02T09:59:44;23.90;61.40
9057;DHT22;4563;54.756;9.400;2022-09-02T10:02:27;24.10;55.70
9057;DHT22;4563;54.756;9.400;2022-09-02T10:05:08;24.30;55.30
9057;DHT22;4563;54.756;9.400;2022-09-02T10:07:37;24.60;54.90
9057;DHT22;4563;54.756;9.400;2022-09-02T10:10:31;24.80;55.50
9057;DHT22;4563;54.756;9.400;2022-09-02T10:13:17;25.20;64.50
9057;DHT22;4563;54.756;9.400;2022-09-02T10:15:59;25.50;66.20
9057;DHT22;4563;54.756;9.400;2022-09-02T10:18:33;25.80;61.00
9057;DHT22;4563;54.756;9.400;2022-09-02T10:21:09;26.10;57.60
9057;DHT22;4563;54.756;9.400;2022-09-02T10:23:46;26.30;57.50
9057;DHT22;4563;54.756;9.400;2022-09-02T10:26:26;26.60;56.40
9057;DHT22;4563;54.756;9.400;2022-09-02T10:29:16;26.90;56.80
9057;DHT22;4563;54.756;9.400;2022-09-02T10:31:58;27.20;59.80
9057;DHT22;4563;54.756;9.400;2022-09-02T10:34:33;27.50;56.00
9057;DHT22;4563;54.756;9.400;2022-09-02T10:37:13;27.80;53.50
9057;DHT22;4563;54.756;9.400;2022-09-02T10:40:05;28.10;55.10
9057;DHT22;4563;54.756;9.400;2022-09-02T10:42:44;28.30;57.00
9057;DHT22;4563;54.756;9.400;2022-09-02T10:45:15;28.60;55.30
9057;DHT22;4563;54.756;9.400;2022-09-02T10:47:56;28.90;50.00
9057;DHT22;4563;54.756;9.400;2022-09-02T10:50:36;29.10;51.90
9057;DHT22;4563;54.756;9.400;2022-09-02T10:53:14;29.40;53.30
9057;DHT22;4563;54.756;9.400;2022-09-02T10:55:52;29.60;51.60
9057;DHT22;4563;54.756;9.400;2022-09-02T10:58:35;29.80;50.80
9057;DHT22;4563;54.756;9.400;2022-09-02T11:01:06;30.10;51.00
9057;DHT22;4563;54.756;9.400;2022-09-02T11:03:39;30.40;47.50
9057;DHT22;4563;54.756;9.400;2022-09-02T11:06:11;30.50;47.40
9057;DHT22;4563;54.756;9.400;2022-09-02T11:08:41;30.80;46.30
9057;DHT22;4563;54.756;9.400;2022-09-02T11:11:12;31.00;45.40
9057;DHT22;4563;54.756;9.400;2022-09-02T11:14:00;31.20;45.50
9057;DHT22;4563;54.756;9.400;2022-09-02T11:16:32;31.40;52.20
9057;DHT22;4563;54.756;9.400;2022-09-02T11:19:08;31.60;45.90
9057;DHT22;4563;54.756;9.400;2022-09-02T11:21:51;31.70;47.20
9057;DHT22;4563;54.756;9.400;2022-09-02T11:24:26;31.90;49.90
9057;DHT22;4563;54.756;9.400;2022-09-02T11:26:59;32.10;45.60
9057;DHT22;4563;54.756;9.400;2022-09-02T11:29:39;32.20;44.50
9057;DHT22;4563;54.756;9.400;2022-09-02T11:32:16;32.40;48.00
9057;DHT22;4563;54.756;9.400;2022-09-02T11:34:50;32.50;44.10
9057;DHT22;4563;54.756;9.400;2022-09-02T11:37:28;32.60;45.60
9057;DHT22;4563;54.756;9.400;2022-09-02T11:39:59;32.80;47.50
9057;DHT22;4563;54.756;9.400;2022-09-02T11:42:42;32.90;43.10
9057;DHT22;4563;54.756;9.400;2022-09-02T11:45:30;33.10;49.20
9057;DHT22;4563;54.756;9.400;2022-09-02T11:48:26;33.20;44.40
9057;DHT22;4563;54.756;9.400;2022-09-02T11:54:02;33.50;50.40
9057;DHT22;4563;54.756;9.400;2022-09-02T11:56:36;33.50;40.40
9057;DHT22;4563;54.756;9.400;2022-09-02T11:59:06;33.60;43.30
9057;DHT22;4563;54.756;9.400;2022-09-02T12:01:46;33.70;39.50
9057;DHT22;4563;54.756;9.400;2022-09-02T12:04:19;33.80;48.10
9057;DHT22;4563;54.756;9.400;2022-09-02T12:07:21;33.90;42.40
9057;DHT22;4563;54.756;9.400;2022-09-02T12:09:49;34.00;48.20
9057;DHT22;4563;54.756;9.400;2022-09-02T12:15:21;34.10;47.90
9057;DHT22;4563;54.756;9.400;2022-09-02T12:18:14;34.20;39.30
9057;DHT22;4563;54.756;9.400;2022-09-02T12:21:05;34.20;49.10
9057;DHT22;4563;54.756;9.400;2022-09-02T12:24:10;34.30;44.70
9057;DHT22;4563;54.756;9.400;2022-09-02T12:27:09;34.40;47.50
9057;DHT22;4563;54.756;9.400;2022-09-02T12:29:39;34.40;47.00
9057;DHT22;4563;54.756;9.400;2022-09-02T12:32:08;34.40;37.90
9057;DHT22;4563;54.756;9.400;2022-09-02T12:34:58;34.40;37.70
9057;DHT22;4563;54.756;9.400;2022-09-02T12:37:53;34.40;46.20
9057;DHT22;4563;54.756;9.400;2022-09-02T12:40:28;34.40;46.20
9057;DHT22;4563;54.756;9.400;2022-09-02T12:42:59;34.50;38.00
9057;DHT22;4563;54.756;9.400;2022-09-02T12:45:30;34.50;37.60
9057;DHT22;4563;54.756;9.400;2022-09-02T12:48:01;34.40;37.40
9057;DHT22;4563;54.756;9.400;2022-09-02T12:50:52;34.40;37.90
9057;DHT22;4563;54.756;9.400;2022-09-02T12:53:28;34.40;46.30
9057;DHT22;4563;54.756;9.400;2022-09-02T12:56:03;34.40;40.30
9057;DHT22;4563;54.756;9.400;2022-09-02T12:58:34;34.40;39.00
9057;DHT22;4563;54.756;9.400;2022-09-02T13:01:25;34.30;37.70
9057;DHT22;4563;54.756;9.400;2022-09-02T13:04:23;34.30;44.10
9057;DHT22;4563;54.756;9.400;2022-09-02T13:07:24;34.20;44.60
9057;DHT22;4563;54.756;9.400;2022-09-02T13:10:22;34.20;45.00
9057;DHT22;4563;54.756;9.400;2022-09-02T13:19:21;34.00;42.00
9057;DHT22;4563;54.756;9.400;2022-09-02T13:25:22;33.80;38.70
9057;DHT22;4563;54.756;9.400;2022-09-02T13:31:10;33.60;41.20
9057;DHT22;4563;54.756;9.400;2022-09-02T13:33:43;33.40;37.60
9057;DHT22;4563;54.756;9.400;2022-09-02T13:36:21;33.30;36.20
9057;DHT22;4563;54.756;9.400;2022-09-02T13:38:50;33.20;37.90
9057;DHT22;4563;54.756;9.400;2022-09-02T13:41:30;33.00;36.40
9057;DHT22;4563;54.756;9.400;2022-09-02T13:44:08;32.90;39.30
9057;DHT22;4563;54.756;9.400;2022-09-02T13:46:43;32.60;38.70
9057;DHT22;4563;54.756;9.400;2022-09-02T13:49:23;32.50;38.00
9057;DHT22;4563;54.756;9.400;2022-09-02T13:51:53;32.30;38.30
9057;DHT22;4563;54.756;9.400;2022-09-02T13:54:38;32.10;36.20
9057;DHT22;4563;54.756;9.400;2022-09-02T13:57:19;32.00;41.20
9057;DHT22;4563;54.756;9.400;2022-09-02T13:59:50;31.80;38.70
9057;DHT22;4563;54.756;9.400;2022-09-02T14:02:22;31.60;36.20
9057;DHT22;4563;54.756;9.400;2022-09-02T14:04:51;31.40;37.00
9057;DHT22;4563;54.756;9.400;2022-09-02T14:07:27;31.30;36.60
9057;DHT22;4563;54.756;9.400;2022-09-02T14:10:00;31.10;36.90
9057;DHT22;4563;54.756;9.400;2022-09-02T14:12:36;30.90;37.20
9057;DHT22;4563;54.756;9.400;2022-09-02T14:15:05;30.80;38.30
9057;DHT22;4563;54.756;9.400;2022-09-02T14:17:33;30.60;37.30
9057;DHT22;4563;54.756;9.400;2022-09-02T14:20:17;30.50;37.50
9057;DHT22;4563;54.756;9.400;2022-09-02T14:22:55;30.30;38.90
9057;DHT22;4563;54.756;9.400;2022-09-02T14:25:25;30.10;40.10
9057;DHT22;4563;54.756;9.400;2022-09-02T14:28:08;30.00;38.00
9057;DHT22;4563;54.756;9.400;2022-09-02T14:30:40;29.80;39.70
9057;DHT22;4563;54.756;9.400;2022-09-02T14:33:22;29.70;38.10
9057;DHT22;4563;54.756;9.400;2022-09-02T14:35:58;29.50;39.70
9057;DHT22;4563;54.756;9.400;2022-09-02T14:38:27;29.30;40.00
9057;DHT22;4563;54.756;9.400;2022-09-02T14:41:08;29.20;38.90
9057;DHT22;4563;54.756;9.400;2022-09-02T14:43:44;29.10;40.40
9057;DHT22;4563;54.756;9.400;2022-09-02T14:46:24;28.90;40.50
9057;DHT22;4563;54.756;9.400;2022-09-02T14:49:00;28.70;40.70
9057;DHT22;4563;54.756;9.400;2022-09-02T14:51:42;28.60;39.80
9057;DHT22;4563;54.756;9.400;2022-09-02T14:54:12;28.50;41.40
9057;DHT22;4563;54.756;9.400;2022-09-02T14:57:02;28.30;39.90
9057;DHT22;4563;54.756;9.400;2022-09-02T14:59:30;28.20;40.10
9057;DHT22;4563;54.756;9.400;2022-09-02T15:01:58;28.10;40.10
9057;DHT22;4563;54.756;9.400;2022-09-02T15:04:25;27.90;40.10
9057;DHT22;4563;54.756;9.400;2022-09-02T15:06:55;27.80;40.30
9057;DHT22;4563;54.756;9.400;2022-09-02T15:09:24;27.70;40.50
9057;DHT22;4563;54.756;9.400;2022-09-02T15:11:52;27.60;40.60
9057;DHT22;4563;54.756;9.400;2022-09-02T15:14:19;27.50;40.50
9057;DHT22;4563;54.756;9.400;2022-09-02T15:16:48;27.30;40.80
9057;DHT22;4563;54.756;9.400;2022-09-02T15:19:16;27.20;40.70
9057;DHT22;4563;54.756;9.400;2022-09-02T15:21:43;27.10;40.70
9057;DHT22;4563;54.756;9.400;2022-09-02T15:24:09;27.00;41.00
9057;DHT22;4563;54.756;9.400;2022-09-02T15:26:36;26.90;41.20
9057;DHT22;4563;54.756;9.400;2022-09-02T15:29:04;26.80;41.20
9057;DHT22;4563;54.756;9.400;2022-09-02T15:31:31;26.70;41.30
9057;DHT22;4563;54.756;9.400;2022-09-02T15:34:01;26.60;41.50
9057;DHT22;4563;54.756;9.400;2022-09-02T15:36:28;26.50;41.60
9057;DHT22;4563;54.756;9.400;2022-09-02T15:38:57;26.40;41.60
9057;DHT22;4563;54.756;9.400;2022-09-02T15:41:27;26.30;41.60
9057;DHT22;4563;54.756;9.400;2022-09-02T15:43:56;26.20;41.70
9057;DHT22;4563;54.756;9.400;2022-09-02T15:46:25;26.10;41.90
9057;DHT22;4563;54.756;9.400;2022-09-02T15:48:52;26.00;42.20
9057;DHT22;4563;54.756;9.400;2022-09-02T15:51:24;25.90;42.00
9057;DHT22;4563;54.756;9.400;2022-09-02T15:53:54;25.80;42.10
9057;DHT22;4563;54.756;9.400;2022-09-02T15:56:24;25.80;43.10
9057;DHT22;4563;54.756;9.400;2022-09-02T15:58:55;25.70;43.10
9057;DHT22;4563;54.756;9.400;2022-09-02T16:01:24;25.60;42.70
9057;DHT22;4563;54.756;9.400;2022-09-02T16:03:51;25.50;42.60
9057;DHT22;4563;54.756;9.400;2022-09-02T16:06:18;25.50;42.70
9057;DHT22;4563;54.756;9.400;2022-09-02T16:08:50;25.40;42.70
9057;DHT22;4563;54.756;9.400;2022-09-02T16:11:19;25.30;42.80
9057;DHT22;4563;54.756;9.400;2022-09-02T16:13:46;25.20;42.70
9057;DHT22;4563;54.756;9.400;2022-09-02T16:16:18;25.20;43.10
9057;DHT22;4563;54.756;9.400;2022-09-02T16:18:49;25.10;43.00
9057;DHT22;4563;54.756;9.400;2022-09-02T16:21:18;25.00;43.30
9057;DHT22;4563;54.756;9.400;2022-09-02T16:23:51;25.00;43.20
9057;DHT22;4563;54.756;9.400;2022-09-02T16:26:23;24.90;43.30
9057;DHT22;4563;54.756;9.400;2022-09-02T16:28:51;24.90;43.90
9057;DHT22;4563;54.756;9.400;2022-09-02T16:31:22;24.80;43.50
9057;DHT22;4563;54.756;9.400;2022-09-02T16:33:54;24.80;43.80
9057;DHT22;4563;54.756;9.400;2022-09-02T16:36:27;24.70;44.00
9057;DHT22;4563;54.756;9.400;2022-09-02T16:38:56;24.70;44.20
9057;DHT22;4563;54.756;9.400;2022-09-02T16:41:34;24.60;43.80
9057;DHT22;4563;54.756;9.400;2022-09-02T16:44:03;24.50;43.90
9057;DHT22;4563;54.756;9.400;2022-09-02T16:46:33;24.50;44.00
9057;DHT22;4563;54.756;9.400;2022-09-02T16:49:01;24.50;44.00
9057;DHT22;4563;54.756;9.400;2022-09-02T16:51:28;24.40;44.10
9057;DHT22;4563;54.756;9.400;2022-09-02T16:53:58;24.40;44.20
9057;DHT22;4563;54.756;9.400;2022-09-02T16:56:39;24.30;44.50
9057;DHT22;4563;54.756;9.400;2022-09-02T16:59:09;24.30;44.50
9057;DHT22;4563;54.756;9.400;2022-09-02T17:01:39;24.20;44.60
9057;DHT22;4563;54.756;9.400;2022-09-02T17:04:07;24.20;44.70
9057;DHT22;4563;54.756;9.400;2022-09-02T17:06:34;24.10;44.80
9057;DHT22;4563;54.756;9.400;2022-09-02T17:09:02;24.10;44.90
9057;DHT22;4563;54.756;9.400;2022-09-02T17:11:30;24.00;44.90
9057;DHT22;4563;54.756;9.400;2022-09-02T17:14:00;24.00;45.20
9057;DHT22;4563;54.756;9.400;2022-09-02T17:16:30;23.90;45.10
9057;DHT22;4563;54.756;9.400;2022-09-02T17:18:57;23.90;45.20
9057;DHT22;4563;54.756;9.400;2022-09-02T17:21:30;23.80;45.20
9057;DHT22;4563;54.756;9.400;2022-09-02T17:23:59;23.80;45.20